Time;durP1;ratioP1;P1;durP2;ratioP2;P2;SDS_P1;SDS_P2;PMS_P1;PMS_P2;Temp;Humidity;BMP_temperature;BMP_pressure;BME280_temperature;BME280_humidity;BME280_pressure;Samples;Min_cycle;Max_cycle;Signal;HPM_P1;HPM_P2
2021/12/03 00:01:06;;;;;;;4.22;1.55;;;;;;;-0.02;79.98;100503.75;5009215;28;20057;-54
2021/12/03 00:03:34;;;;;;;5.95;1.70;;;;;;;0.05;79.36;100506.47;5002774;28;20451;-51
2021/12/03 00:05:59;;;;;;;3.38;1.67;;;;;;;-0.02;79.70;100512.47;5007475;28;20068;-50
2021/12/03 00:08:26;;;;;;;4.50;2.03;;;;;;;0.01;79.53;100513.94;5005241;28;20033;-50
2021/12/03 00:10:57;;;;;;;4.30;1.77;;;;;;;-0.05;79.64;100510.19;5008883;28;20088;-50
2021/12/03 00:13:24;;;;;;;2.55;1.83;;;;;;;0.02;79.10;100510.28;5009310;28;20046;-50
2021/12/03 00:15:51;;;;;;;8.05;2.20;;;;;;;-0.01;79.16;100522.00;5008516;28;20037;-52
2021/12/03 00:18:16;;;;;;;9.10;2.20;;;;;;;-0.04;79.16;100511.84;5005987;28;20038;-55
2021/12/03 00:20:42;;;;;;;5.22;1.95;;;;;;;-0.03;79.07;100512.66;5011332;28;20318;-50
2021/12/03 00:23:08;;;;;;;3.58;1.80;;;;;;;-0.05;79.15;100527.81;5005546;28;20181;-53
2021/12/03 00:25:34;;;;;;;7.88;1.67;;;;;;;-0.07;78.91;100528.00;5004268;28;20526;-53
2021/12/03 00:28:01;;;;;;;7.18;2.10;;;;;;;-0.11;78.86;100523.28;5008163;28;20080;-52
2021/12/03 00:30:26;;;;;;;3.97;1.70;;;;;;;-0.21;79.56;100528.03;5009485;28;20021;-52
2021/12/03 00:32:53;;;;;;;5.68;1.83;;;;;;;-0.35;80.03;100538.41;5001469;28;20034;-50
2021/12/03 00:35:19;;;;;;;3.70;1.98;;;;;;;-0.26;79.83;100536.47;5005646;28;20085;-53
2021/12/03 00:37:46;;;;;;;2.08;1.50;;;;;;;-0.27;79.78;100544.56;5000926;28;20033;-52
2021/12/03 00:40:15;;;;;;;5.88;2.00;;;;;;;-0.29;79.74;100541.28;5002395;28;20246;-53
2021/12/03 00:42:41;;;;;;;5.00;1.52;;;;;;;-0.33;79.59;100546.94;5001555;28;20026;-53
2021/12/03 00:45:10;;;;;;;2.30;1.27;;;;;;;-0.37;79.77;100547.44;5005745;28;20044;-53
2021/12/03 00:47:35;;;;;;;3.42;1.58;;;;;;;-0.43;80.02;100533.22;5001559;28;20752;-53
2021/12/03 00:50:01;;;;;;;5.07;2.22;;;;;;;-0.40;79.78;100546.00;5004440;28;20036;-50
2021/12/03 00:52:27;;;;;;;4.60;1.45;;;;;;;-0.47;80.34;100537.22;5007310;28;20378;-52
2021/12/03 00:54:52;;;;;;;5.13;1.50;;;;;;;-0.42;80.02;100536.66;5005960;28;20026;-53
2021/12/03 00:57:18;;;;;;;3.72;1.42;;;;;;;-0.41;79.72;100530.38;5005640;28;20525;-56
2021/12/03 00:59:44;;;;;;;3.90;1.40;;;;;;;-0.51;79.95;100532.50;5004811;28;20112;-52
2021/12/03 01:02:09;;;;;;;2.78;1.05;;;;;;;-0.45;79.86;100526.50;5006358;28;20022;-52
2021/12/03 01:04:35;;;;;;;13.90;1.90;;;;;;;-0.41;79.60;100525.94;5004588;28;20090;-50
2021/12/03 01:07:01;;;;;;;5.10;1.20;;;;;;;-0.42;79.70;100537.47;5009867;28;20026;-52
2021/12/03 01:09:26;;;;;;;4.57;1.65;;;;;;;-0.38;79.50;100536.09;5007752;28;20052;-51
2021/12/03 01:11:52;;;;;;;7.40;1.73;;;;;;;-0.42;78.93;100531.38;5007176;28;20029;-51
2021/12/03 01:14:19;;;;;;;9.73;2.00;;;;;;;-0.41;79.01;100538.28;5007774;28;20573;-54
2021/12/03 01:16:45;;;;;;;3.72;1.70;;;;;;;-0.42;79.49;100536.66;5002421;28;20173;-54
2021/12/03 01:19:11;;;;;;;3.28;1.40;;;;;;;-0.36;79.06;100547.28;5006362;28;20515;-50
2021/12/03 01:21:37;;;;;;;6.88;1.52;;;;;;;-0.39;78.74;100544.19;5003210;28;20107;-52
2021/12/03 01:24:04;;;;;;;6.57;1.30;;;;;;;-0.43;78.74;100543.72;5004056;28;20022;-51
2021/12/03 01:26:30;;;;;;;6.40;1.23;;;;;;;-0.51;79.00;100541.19;5001354;28;20238;-54
2021/12/03 01:28:56;;;;;;;8.63;1.90;;;;;;;-0.56;79.10;100535.66;5006602;28;20022;-50
2021/12/03 01:31:22;;;;;;;3.10;1.77;;;;;;;-0.55;78.71;100536.47;5004300;28;20025;-54
2021/12/03 01:33:48;;;;;;;7.10;2.03;;;;;;;-0.59;79.04;100530.75;5006101;28;20048;-50
2021/12/03 01:36:14;;;;;;;6.30;1.60;;;;;;;-0.67;79.39;100517.69;5008504;28;20108;-51
2021/12/03 01:38:40;;;;;;;6.05;1.67;;;;;;;-0.67;78.76;100522.94;5007979;28;20399;-52
2021/12/03 01:41:06;;;;;;;5.18;1.77;;;;;;;-0.61;79.10;100511.69;5002003;28;20026;-52
2021/12/03 01:43:32;;;;;;;3.42;1.65;;;;;;;-0.68;78.84;100505.53;5009854;28;20360;-54
2021/12/03 01:46:09;;;;;;;3.72;1.23;;;;;;;-0.73;79.42;100505.22;5005882;28;20036;-50
2021/12/03 01:48:36;;;;;;;10.32;1.50;;;;;;;-0.73;79.40;100503.41;5002238;28;20030;-51
2021/12/03 01:51:03;;;;;;;4.63;1.55;;;;;;;-0.78;79.74;100505.78;5003293;28;20026;-52
2021/12/03 01:53:31;;;;;;;4.45;1.42;;;;;;;-0.74;79.14;100514.13;5002316;28;20036;-50
2021/12/03 01:56:00;;;;;;;7.55;1.58;;;;;;;-0.73;79.54;100513.94;5007248;28;20060;-51
2021/12/03 01:58:25;;;;;;;3.65;1.13;;;;;;;-0.72;79.33;100517.38;5005627;28;20030;-51
2021/12/03 02:00:59;;;;;;;2.83;0.90;;;;;;;-0.77;79.57;100509.22;5005330;28;20389;-52
2021/12/03 02:03:29;;;;;;;3.72;1.30;;;;;;;-0.78;79.54;100499.72;5002734;28;20108;-51
2021/12/03 02:05:57;;;;;;;4.38;1.50;;;;;;;-0.80;79.22;100492.00;5009073;28;20500;-53
2021/12/03 02:08:22;;;;;;;3.25;1.35;;;;;;;-0.79;79.80;100498.06;5001261;28;20037;-53
2021/12/03 02:10:49;;;;;;;3.85;1.45;;;;;;;-0.78;79.44;100499.72;5008070;28;20034;-51
2021/12/03 02:13:15;;;;;;;2.90;1.00;;;;;;;-0.75;79.94;100501.97;5004746;28;20053;-55
2021/12/03 02:15:42;;;;;;;4.55;1.23;;;;;;;-0.78;80.08;100491.81;5008643;28;20057;-53
2021/12/03 02:18:09;;;;;;;4.68;1.23;;;;;;;-0.75;79.69;100489.63;5001925;28;20037;-54
2021/12/03 02:20:35;;;;;;;6.15;1.13;;;;;;;-0.72;80.02;100485.81;4998786;28;20113;-53
2021/12/03 02:23:00;;;;;;;2.33;1.73;;;;;;;-0.70;79.65;100491.75;5005547;28;20022;-55
2021/12/03 02:25:26;;;;;;;3.05;1.30;;;;;;;-0.72;80.13;100489.28;5003488;28;20037;-52
2021/12/03 02:27:55;;;;;;;3.95;1.35;;;;;;;-0.69;80.33;100488.13;5000061;28;20034;-53
2021/12/03 02:30:22;;;;;;;2.22;1.40;;;;;;;-0.63;80.02;100487.38;5002878;28;20065;-53
2021/12/03 02:32:52;;;;;;;7.32;1.67;;;;;;;-0.57;79.81;100491.91;5002461;28;20076;-54
2021/12/03 02:35:19;;;;;;;3.95;1.27;;;;;;;-0.66;80.25;100487.75;5000994;28;20100;-55
2021/12/03 02:37:45;;;;;;;3.20;1.30;;;;;;;-0.57;80.35;100497.16;5005707;28;20474;-50
2021/12/03 02:40:11;;;;;;;4.55;1.05;;;;;;;-0.55;79.58;100481.19;5003861;28;20029;-53
2021/12/03 02:42:38;;;;;;;3.60;1.33;;;;;;;-0.55;80.09;100483.81;5002372;28;21058;-51
2021/12/03 02:45:05;;;;;;;2.55;1.00;;;;;;;-0.61;80.59;100486.19;5000087;28;20097;-55
2021/12/03 02:47:31;;;;;;;2.90;1.20;;;;;;;-0.55;80.10;100494.34;4994418;28;20022;-53
2021/12/03 02:49:56;;;;;;;3.08;1.42;;;;;;;-0.50;80.29;100487.56;5005726;28;20033;-52
2021/12/03 02:52:22;;;;;;;7.90;1.80;;;;;;;-0.56;80.36;100492.72;4996607;28;20380;-52
2021/12/03 02:54:49;;;;;;;5.88;1.13;;;;;;;-0.49;80.67;100491.00;5003259;28;20514;-52
2021/12/03 02:57:15;;;;;;;4.82;1.30;;;;;;;-0.43;80.59;100496.34;5007285;28;20049;-54
2021/12/03 02:59:40;;;;;;;4.00;1.08;;;;;;;-0.42;80.17;100495.34;5002704;28;20519;-52
2021/12/03 03:02:06;;;;;;;5.32;1.25;;;;;;;-0.45;80.67;100502.81;5004363;28;20246;-51
2021/12/03 03:04:31;;;;;;;3.17;1.38;;;;;;;-0.29;79.91;100509.69;5008951;28;20086;-53
2021/12/03 03:06:57;;;;;;;2.53;1.50;;;;;;;-0.24;79.70;100508.13;5010788;28;20487;-52
2021/12/03 03:09:23;;;;;;;3.47;1.50;;;;;;;-0.25;79.84;100508.31;5006650;28;20276;-53
2021/12/03 03:11:48;;;;;;;4.57;1.60;;;;;;;-0.27;79.61;100505.06;5008315;28;20064;-49
2021/12/03 03:14:14;;;;;;;3.63;1.40;;;;;;;-0.21;79.37;100514.84;5010419;28;20495;-50
2021/12/03 03:16:40;;;;;;;5.55;1.83;;;;;;;-0.17;79.04;100513.50;5012115;28;20106;-52
2021/12/03 03:19:16;;;;;;;2.72;1.10;;;;;;;-0.20;79.10;100509.41;5013445;28;20132;-51
2021/12/03 03:21:42;;;;;;;2.20;1.40;;;;;;;-0.17;79.32;100509.06;5002035;28;20025;-51
2021/12/03 03:24:09;;;;;;;2.25;1.40;;;;;;;-0.12;79.11;100500.59;5012750;28;20067;-53
2021/12/03 03:26:37;;;;;;;5.93;1.80;;;;;;;-0.16;79.14;100494.06;5007770;28;20056;-50
2021/12/03 03:29:05;;;;;;;4.05;1.98;;;;;;;-0.16;78.87;100500.16;5009416;28;20619;-50
2021/12/03 03:31:33;;;;;;;2.55;1.27;;;;;;;-0.22;79.12;100492.97;5001041;28;20081;-51
2021/12/03 03:33:58;;;;;;;5.25;1.70;;;;;;;-0.19;78.95;100500.50;5000051;28;20029;-51
2021/12/03 03:36:24;;;;;;;9.38;2.60;;;;;;;-0.20;78.94;100496.22;5002063;28;20034;-51
2021/12/03 03:38:49;;;;;;;4.20;1.65;;;;;;;-0.20;78.94;100498.06;5007118;28;20532;-50
2021/12/03 03:41:15;;;;;;;3.75;1.48;;;;;;;-0.23;78.86;100501.06;5004051;28;20018;-49
2021/12/03 03:43:41;;;;;;;5.78;1.80;;;;;;;-0.24;78.94;100494.16;5001466;28;20030;-52
2021/12/03 03:46:07;;;;;;;4.00;1.67;;;;;;;-0.27;79.14;100499.78;5010406;28;20030;-53
2021/12/03 03:48:33;;;;;;;5.82;2.00;;;;;;;-0.31;79.08;100499.34;5004507;28;20036;-50
2021/12/03 03:50:59;;;;;;;6.57;2.92;;;;;;;-0.24;79.18;100494.16;5006955;28;20772;-55
2021/12/03 03:53:24;;;;;;;4.28;1.83;;;;;;;-0.26;79.19;100483.00;5003476;28;20033;-52
2021/12/03 03:55:50;;;;;;;4.72;2.10;;;;;;;-0.28;79.44;100490.28;5011377;28;20460;-52
2021/12/03 03:58:16;;;;;;;4.97;2.38;;;;;;;-0.22;79.20;100494.78;5007233;28;20038;-53
2021/12/03 04:00:43;;;;;;;5.13;2.30;;;;;;;-0.29;79.41;100486.81;5003666;28;20148;-52
2021/12/03 04:03:09;;;;;;;6.05;2.38;;;;;;;-0.31;79.86;100497.53;5007878;28;20017;-55
2021/12/03 04:05:35;;;;;;;7.30;2.67;;;;;;;-0.27;79.75;100492.72;5001907;28;20285;-51
2021/12/03 04:08:01;;;;;;;4.80;2.35;;;;;;;-0.23;79.59;100501.88;5010532;28;20420;-52
2021/12/03 04:10:27;;;;;;;7.38;2.45;;;;;;;-0.20;79.80;100498.06;5014533;28;20041;-50
2021/12/03 04:12:53;;;;;;;6.78;3.08;;;;;;;-0.22;79.68;100500.88;5005420;28;20079;-53
2021/12/03 04:15:19;;;;;;;5.72;2.72;;;;;;;-0.23;79.83;100511.59;5000830;28;20387;-53
2021/12/03 04:17:46;;;;;;;5.93;3.22;;;;;;;-0.25;79.80;100517.03;5009534;28;20034;-50
2021/12/03 04:20:12;;;;;;;7.35;2.67;;;;;;;-0.17;79.70;100521.41;5007806;28;20060;-53
2021/12/03 04:22:38;;;;;;;7.53;2.42;;;;;;;-0.09;79.58;100516.84;5004975;28;20026;-51
2021/12/03 04:25:07;;;;;;;4.70;2.63;;;;;;;-0.17;80.06;100524.84;5004685;28;21066;-54
2021/12/03 04:27:34;;;;;;;6.05;3.28;;;;;;;-0.06;79.69;100528.81;5003563;28;20033;-54
2021/12/03 04:30:00;;;;;;;5.25;2.58;;;;;;;-0.14;79.65;100528.94;5009190;28;20030;-55
2021/12/03 04:32:25;;;;;;;5.63;2.88;;;;;;;-0.16;80.48;100520.41;5005815;28;20495;-53
2021/12/03 04:34:52;;;;;;;15.98;5.57;;;;;;;-0.15;80.40;100524.66;5005793;28;20172;-50
2021/12/03 04:37:18;;;;;;;7.35;3.10;;;;;;;-0.17;80.71;100524.03;5012758;28;20091;-51
2021/12/03 04:39:44;;;;;;;9.13;3.67;;;;;;;-0.19;81.33;100526.00;5006345;28;20034;-51
2021/12/03 04:42:10;;;;;;;4.70;2.63;;;;;;;-0.11;80.83;100533.84;5013642;28;20041;-51
2021/12/03 04:44:37;;;;;;;11.77;4.65;;;;;;;-0.11;81.20;100531.19;5002126;28;20385;-50
2021/12/03 04:47:03;;;;;;;8.77;3.45;;;;;;;-0.09;80.94;100530.00;5009529;28;20440;-51
2021/12/03 04:49:28;;;;;;;10.45;3.75;;;;;;;-0.19;81.11;100533.91;5002773;28;20114;-52
2021/12/03 04:51:55;;;;;;;6.72;2.97;;;;;;;-0.13;81.45;100528.75;5016234;28;20022;-49
2021/12/03 04:54:21;;;;;;;7.45;3.53;;;;;;;-0.10;81.60;100530.19;5006351;28;20038;-50
2021/12/03 04:56:46;;;;;;;7.20;3.05;;;;;;;-0.06;81.29;100524.38;5006385;28;20449;-52
2021/12/03 04:59:12;;;;;;;5.28;3.58;;;;;;;-0.14;81.67;100524.50;5006542;28;20082;-52
2021/12/03 05:01:39;;;;;;;12.27;4.97;;;;;;;-0.07;81.51;100535.09;5007378;28;20034;-51
2021/12/03 05:04:04;;;;;;;5.82;3.45;;;;;;;-0.03;81.31;100528.44;5012060;28;20021;-53
2021/12/03 05:06:42;;;;;;;8.82;3.42;;;;;;;0.04;81.13;100537.25;5003750;28;20037;-50
2021/12/03 05:09:08;;;;;;;8.90;3.67;;;;;;;-0.04;81.16;100535.53;5003302;28;20401;-53
2021/12/03 05:11:33;;;;;;;6.70;3.70;;;;;;;0.04;81.08;100549.63;5005661;28;20025;-51
2021/12/03 05:13:59;;;;;;;10.52;3.92;;;;;;;0.04;81.08;100542.53;5006434;28;20030;-51
2021/12/03 05:16:24;;;;;;;8.50;3.97;;;;;;;0.03;81.13;100546.16;5008969;28;20029;-50
2021/12/03 05:18:50;;;;;;;11.25;4.28;;;;;;;0.03;81.31;100535.63;5006014;28;20108;-49
2021/12/03 05:21:15;;;;;;;7.90;4.25;;;;;;;0.05;81.21;100540.72;5004300;28;20021;-52
2021/12/03 05:23:41;;;;;;;8.90;3.70;;;;;;;0.13;80.96;100528.25;5001693;28;20044;-50
2021/12/03 05:26:06;;;;;;;6.90;3.88;;;;;;;0.07;81.04;100531.63;5004408;28;20768;-50
2021/12/03 05:28:32;;;;;;;13.82;4.30;;;;;;;0.04;81.29;100533.81;5010725;28;20038;-50
2021/12/03 05:30:57;;;;;;;6.30;3.75;;;;;;;0.10;80.97;100535.69;5006612;28;20128;-51
2021/12/03 05:33:23;;;;;;;5.90;3.65;;;;;;;0.10;81.03;100540.97;5003678;28;20452;-50
2021/12/03 05:35:50;;;;;;;6.75;3.95;;;;;;;0.01;81.64;100540.28;5005022;28;20113;-52
2021/12/03 05:38:16;;;;;;;11.55;3.63;;;;;;;-0.04;81.56;100534.72;5005867;28;20022;-51
2021/12/03 05:40:42;;;;;;;9.02;3.95;;;;;;;0.09;81.05;100545.41;5004421;28;20060;-50
2021/12/03 05:43:07;;;;;;;7.20;4.00;;;;;;;-0.04;81.71;100542.63;5002754;28;20473;-51
2021/12/03 05:45:34;;;;;;;7.32;3.78;;;;;;;-0.05;82.07;100541.00;5004802;28;20133;-50
2021/12/03 05:48:00;;;;;;;6.78;3.28;;;;;;;0.00;81.74;100536.00;5009575;28;20028;-49
2021/12/03 05:50:27;;;;;;;9.60;4.05;;;;;;;-0.08;82.18;100544.81;5001842;28;20029;-50
2021/12/03 05:52:54;;;;;;;8.20;3.75;;;;;;;-0.04;82.08;100545.25;5005724;28;20652;-52
2021/12/03 05:55:20;;;;;;;9.10;3.63;;;;;;;-0.04;82.02;100555.78;5002994;28;20815;-50
2021/12/03 05:57:47;;;;;;;8.20;4.50;;;;;;;0.02;81.94;100551.63;5000911;28;20044;-51
2021/12/03 06:00:20;;;;;;;9.43;4.43;;;;;;;0.08;81.89;100556.97;5001998;28;20460;-51
2021/12/03 06:02:46;;;;;;;8.52;4.55;;;;;;;0.06;81.84;100569.50;4999774;28;20052;-51
2021/12/03 06:05:12;;;;;;;8.13;3.92;;;;;;;-0.02;82.34;100559.06;4993595;28;20480;-50
2021/12/03 06:07:39;;;;;;;12.10;5.22;;;;;;;-0.07;82.06;100577.22;5001644;28;20335;-50
2021/12/03 06:10:05;;;;;;;7.97;3.67;;;;;;;-0.08;82.45;100575.59;4999790;28;20034;-51
2021/12/03 06:12:31;;;;;;;8.35;3.95;;;;;;;-0.03;82.09;100578.50;5004361;28;20065;-50
2021/12/03 06:14:57;;;;;;;10.40;4.60;;;;;;;0.05;81.74;100580.22;4999299;28;20083;-51
2021/12/03 06:17:22;;;;;;;13.05;4.72;;;;;;;-0.03;81.68;100576.66;4999855;28;20018;-51
2021/12/03 06:19:48;;;;;;;9.18;4.97;;;;;;;-0.07;82.18;100572.78;5007187;28;20040;-50
2021/12/03 06:22:13;;;;;;;12.90;5.07;;;;;;;0.03;81.67;100576.97;5007699;28;20018;-51
2021/12/03 06:24:40;;;;;;;7.25;3.80;;;;;;;0.05;81.44;100573.13;5007497;28;20488;-51
2021/12/03 06:27:06;;;;;;;13.75;4.90;;;;;;;0.08;81.55;100577.22;5007940;28;20029;-50
2021/12/03 06:29:31;;;;;;;9.63;4.55;;;;;;;0.09;80.96;100584.94;5009568;28;20040;-50
2021/12/03 06:31:57;;;;;;;8.48;4.90;;;;;;;0.14;81.00;100582.56;5003194;28;20117;-51
2021/12/03 06:34:23;;;;;;;9.20;4.70;;;;;;;0.09;81.18;100590.22;5004081;28;20030;-50
2021/12/03 06:36:49;;;;;;;11.45;4.82;;;;;;;0.14;81.07;100584.38;5003144;28;20022;-53
2021/12/03 06:39:14;;;;;;;9.13;4.57;;;;;;;0.11;81.38;100590.84;5010146;28;20034;-50
2021/12/03 06:41:40;;;;;;;10.65;5.10;;;;;;;0.13;80.85;100588.84;5008424;28;20018;-51
2021/12/03 06:44:08;;;;;;;9.60;4.60;;;;;;;0.10;81.04;100591.84;5011877;28;20083;-50
2021/12/03 06:46:34;;;;;;;11.23;4.50;;;;;;;0.12;81.04;100592.47;5004179;28;20542;-51
2021/12/03 06:49:00;;;;;;;9.23;4.80;;;;;;;0.06;80.86;100595.84;5011724;28;20034;-51
2021/12/03 06:51:26;;;;;;;10.13;5.00;;;;;;;0.07;81.04;100592.22;5007389;28;20108;-49
2021/12/03 06:54:05;;;;;;;9.88;5.30;;;;;;;0.10;80.75;100591.84;5008918;28;20041;-50
2021/12/03 06:56:44;;;;;;;9.35;4.38;;;;;;;-0.01;81.32;100594.94;5007586;28;20026;-51
2021/12/03 06:59:12;;;;;;;10.27;4.63;;;;;;;0.04;81.11;100600.47;5010740;28;20030;-50
2021/12/03 07:01:37;;;;;;;10.35;4.82;;;;;;;0.01;81.31;100600.84;5008947;28;20546;-50
2021/12/03 07:04:03;;;;;;;8.63;4.43;;;;;;;-0.01;81.49;100605.47;5007681;28;20026;-50
2021/12/03 07:06:28;;;;;;;13.80;4.82;;;;;;;-0.04;81.80;100605.84;5010363;28;20025;-53
2021/12/03 07:08:54;;;;;;;10.18;4.47;;;;;;;-0.03;81.87;100610.09;5007142;28;20109;-50
2021/12/03 07:11:19;;;;;;;9.45;4.93;;;;;;;0.04;81.42;100616.28;5010579;28;20452;-52
2021/12/03 07:13:45;;;;;;;8.32;4.82;;;;;;;0.03;81.44;100614.66;5006611;28;20245;-51
2021/12/03 07:16:10;;;;;;;10.20;5.50;;;;;;;-0.02;81.54;100628.34;5011603;28;20030;-50
2021/12/03 07:18:37;;;;;;;9.07;4.32;;;;;;;-0.04;82.42;100643.53;5008485;28;20025;-50
2021/12/03 07:21:03;;;;;;;10.43;5.78;;;;;;;-0.01;81.94;100640.53;5006966;28;20026;-51
2021/12/03 07:23:30;;;;;;;10.52;4.90;;;;;;;0.02;81.92;100644.63;5006731;28;20514;-51
2021/12/03 07:25:56;;;;;;;9.65;4.70;;;;;;;0.05;81.82;100639.00;5007003;28;20022;-52
2021/12/03 07:28:22;;;;;;;10.32;4.88;;;;;;;0.15;81.66;100641.34;5011504;28;20028;-51
2021/12/03 07:30:47;;;;;;;8.73;4.53;;;;;;;0.03;82.03;100646.28;5004640;28;20041;-51
2021/12/03 07:33:16;;;;;;;12.93;5.63;;;;;;;0.04;82.34;100652.34;5006165;28;20100;-53
2021/12/03 07:35:44;;;;;;;11.23;5.65;;;;;;;0.06;82.19;100659.06;5005070;28;20066;-51
2021/12/03 07:38:10;;;;;;;12.18;6.20;;;;;;;0.00;82.61;100659.81;5012842;28;20079;-51
2021/12/03 07:40:36;;;;;;;12.23;5.63;;;;;;;0.07;82.11;100658.06;5004885;28;20152;-50
2021/12/03 07:43:02;;;;;;;8.77;4.88;;;;;;;0.16;82.19;100659.59;5002776;28;20165;-50
2021/12/03 07:45:28;;;;;;;9.57;4.70;;;;;;;0.23;82.02;100659.69;5007986;28;20104;-50
2021/12/03 07:47:53;;;;;;;9.40;4.95;;;;;;;0.33;81.35;100654.13;5006065;28;20254;-51
2021/12/03 07:50:19;;;;;;;11.93;5.15;;;;;;;0.29;81.64;100657.16;5002749;28;20030;-51
2021/12/03 07:52:44;;;;;;;15.30;5.38;;;;;;;0.30;81.45;100661.41;5005834;28;20447;-53
2021/12/03 07:55:10;;;;;;;8.05;4.75;;;;;;;0.37;81.45;100661.53;5006155;28;20030;-51
2021/12/03 07:57:35;;;;;;;10.32;5.75;;;;;;;0.42;81.19;100671.50;5002460;28;20455;-51
2021/12/03 08:00:02;;;;;;;8.82;5.03;;;;;;;0.44;80.98;100669.50;5003497;28;20511;-52
2021/12/03 08:02:28;;;;;;;12.35;5.90;;;;;;;0.47;80.90;100679.66;5004772;28;20077;-53
2021/12/03 08:04:54;;;;;;;13.02;5.50;;;;;;;0.43;80.97;100673.94;5004809;28;20062;-52
2021/12/03 08:07:19;;;;;;;10.10;5.40;;;;;;;0.48;80.60;100686.56;5003924;28;20030;-50
2021/12/03 08:09:45;;;;;;;11.98;4.95;;;;;;;0.34;81.13;100685.56;4998903;28;20065;-54
2021/12/03 08:12:11;;;;;;;13.13;5.20;;;;;;;0.40;80.93;100697.22;5003322;28;20948;-52
2021/12/03 08:14:37;;;;;;;11.70;4.93;;;;;;;0.44;81.08;100680.03;5001886;28;20037;-54
2021/12/03 08:17:03;;;;;;;12.52;5.15;;;;;;;0.39;80.53;100699.03;5001087;28;20032;-51
2021/12/03 08:19:28;;;;;;;13.45;6.05;;;;;;;0.34;81.54;100700.56;5015270;28;20037;-53
2021/12/03 08:21:54;;;;;;;14.60;5.90;;;;;;;0.32;81.62;100697.31;5000931;28;20435;-52
2021/12/03 08:24:19;;;;;;;11.90;4.97;;;;;;;0.44;81.48;100691.41;4999021;28;20095;-55
2021/12/03 08:26:45;;;;;;;13.27;5.47;;;;;;;0.44;80.85;100695.84;5004309;28;20025;-52
2021/12/03 08:29:10;;;;;;;10.55;4.75;;;;;;;0.45;81.46;100686.94;5006476;28;20060;-52
2021/12/03 08:31:38;;;;;;;15.20;5.30;;;;;;;0.56;80.82;100694.41;5000596;28;20048;-52
2021/12/03 08:34:04;;;;;;;12.35;5.43;;;;;;;0.50;80.95;100695.13;5003610;28;20069;-51
2021/12/03 08:36:29;;;;;;;11.35;5.22;;;;;;;0.52;81.08;100688.66;5005935;28;20036;-54
2021/12/03 08:38:55;;;;;;;13.25;4.88;;;;;;;0.60;80.89;100695.66;5006039;28;20036;-51
2021/12/03 08:41:21;;;;;;;10.73;4.82;;;;;;;0.56;81.13;100683.84;5008472;28;20029;-52
2021/12/03 08:43:48;;;;;;;10.68;5.20;;;;;;;0.59;80.96;100680.84;5007806;28;20404;-51
2021/12/03 08:46:21;;;;;;;10.68;4.82;;;;;;;0.62;81.05;100691.00;5005028;28;20234;-52
2021/12/03 08:48:48;;;;;;;12.57;5.05;;;;;;;0.67;81.14;100690.44;5006188;28;20030;-52
2021/12/03 08:56:28;;;;;;;10.52;5.20;;;;;;;0.70;80.91;100679.53;5013811;28;20147;-53
2021/12/03 08:58:53;;;;;;;9.95;5.07;;;;;;;0.76;80.61;100679.63;5002095;28;20129;-51
2021/12/03 09:01:19;;;;;;;10.55;5.65;;;;;;;0.69;81.12;100677.91;5012620;28;20065;-51
2021/12/03 09:03:45;;;;;;;10.85;5.05;;;;;;;0.79;80.79;100687.16;5006091;28;20119;-51
2021/12/03 09:06:10;;;;;;;9.85;5.20;;;;;;;0.68;81.44;100685.00;5014012;28;20160;-51
2021/12/03 09:08:36;;;;;;;11.38;4.68;;;;;;;0.69;81.43;100684.00;5007738;28;20432;-52
2021/12/03 09:11:01;;;;;;;14.18;6.00;;;;;;;0.76;81.46;100690.19;5008588;28;20021;-51
2021/12/03 09:13:27;;;;;;;11.52;4.80;;;;;;;0.82;81.25;100689.44;5006764;28;20048;-51
2021/12/03 09:16:01;;;;;;;13.52;5.13;;;;;;;0.84;81.43;100687.41;5008159;28;20022;-50
2021/12/03 09:18:50;;;;;;;11.00;4.50;;;;;;;0.78;81.63;100690.81;5008755;28;20033;-51
2021/12/03 09:26:19;;;;;;;12.07;5.10;;;;;;;0.88;80.88;100704.50;5002339;28;20045;-54
2021/12/03 09:28:49;;;;;;;11.27;5.28;;;;;;;0.81;80.97;100708.91;5007456;28;20120;-52
2021/12/03 09:31:16;;;;;;;10.63;5.13;;;;;;;0.86;81.49;100714.41;5002528;28;20068;-51
2021/12/03 09:33:45;;;;;;;12.68;5.50;;;;;;;0.92;81.06;100720.78;4999272;28;20022;-52
2021/12/03 09:36:11;;;;;;;11.38;5.80;;;;;;;0.88;81.09;100716.88;5005215;28;20496;-52
2021/12/03 09:38:37;;;;;;;11.18;4.80;;;;;;;0.97;80.95;100733.44;5009427;28;20030;-53
2021/12/03 09:41:15;;;;;;;9.73;4.88;;;;;;;0.84;81.30;100718.25;5005504;28;20415;-54
2021/12/03 09:43:44;;;;;;;12.55;4.63;;;;;;;1.00;81.08;100722.50;5002087;28;20048;-51
2021/12/03 09:46:27;;;;;;;11.80;5.25;;;;;;;0.95;81.42;100717.78;5010858;28;20026;-52
2021/12/03 09:51:46;;;;;;;14.35;5.47;;;;;;;1.02;81.23;100715.22;5004577;28;20022;-53
2021/12/03 09:57:06;;;;;;;12.48;6.00;;;;;;;0.94;81.15;100718.78;5003044;28;20403;-53
2021/12/03 10:15:39;;;;;;;17.40;6.55;;;;;;;1.27;80.98;100703.31;5007315;28;20553;-54
2021/12/03 10:18:09;;;;;;;12.55;5.68;;;;;;;1.23;80.63;100706.50;5008675;28;20614;-54
2021/12/03 10:35:25;;;;;;;11.55;5.63;;;;;;;2.00;79.13;100717.13;4995804;28;20069;-53
2021/12/03 10:38:21;;;;;;;15.25;5.78;;;;;;;1.92;78.57;100715.44;5013237;28;20787;-55
2021/12/03 10:41:19;;;;;;;11.32;5.38;;;;;;;2.05;78.36;100702.31;5011406;28;20068;-55
2021/12/03 10:54:27;;;;;;;15.48;5.80;;;;;;;2.11;77.67;100712.09;5011287;28;20033;-55
2021/12/03 11:18:52;;;;;;;11.52;4.80;;;;;;;3.18;74.40;100702.81;5003943;28;20107;-53
2021/12/03 11:46:46;;;;;;;10.52;5.30;;;;;;;3.91;71.75;100704.47;5006506;28;20306;-55
2021/12/03 12:01:31;;;;;;;13.18;5.70;;;;;;;4.47;68.86;100688.03;5011222;28;20038;-57
2021/12/03 13:08:11;;;;;;;9.50;3.83;;;;;;;3.24;70.88;100718.72;5005133;28;20180;-52
2021/12/03 13:24:21;;;;;;;10.80;3.95;;;;;;;3.05;71.28;100719.47;5003435;28;20096;-54
2021/12/03 14:16:50;;;;;;;8.15;3.90;;;;;;;2.63;72.34;100728.47;5003126;28;20140;-52
2021/12/03 14:22:06;;;;;;;8.77;4.63;;;;;;;2.51;72.78;100725.56;5008215;28;20041;-52
2021/12/03 14:40:48;;;;;;;9.18;4.22;;;;;;;2.35;72.92;100733.81;5004224;28;20032;-53
2021/12/03 14:48:39;;;;;;;7.45;3.90;;;;;;;2.39;72.95;100729.78;5004650;28;20033;-51
2021/12/03 14:56:16;;;;;;;9.10;4.05;;;;;;;2.34;73.27;100719.78;5004217;28;20482;-51
2021/12/03 15:01:40;;;;;;;8.15;3.50;;;;;;;2.35;73.12;100720.59;5009586;28;20030;-53
2021/12/03 15:07:04;;;;;;;7.28;3.67;;;;;;;2.36;73.18;100715.13;5007930;28;20037;-54
2021/12/03 15:09:34;;;;;;;5.25;3.20;;;;;;;2.31;73.13;100727.28;5004601;28;20052;-55
2021/12/03 15:25:02;;;;;;;9.77;3.63;;;;;;;2.22;73.69;100709.94;5012206;28;20041;-51
2021/12/03 15:35:21;;;;;;;7.88;3.75;;;;;;;2.18;73.46;100696.31;5008814;28;21169;-51
2021/12/03 15:38:09;;;;;;;8.40;4.15;;;;;;;2.11;73.78;100690.16;5007284;28;20336;-53
2021/12/03 15:56:56;;;;;;;8.43;3.83;;;;;;;2.07;73.77;100684.44;5004082;28;20035;-53
2021/12/03 16:04:58;;;;;;;9.25;3.78;;;;;;;2.03;74.03;100669.97;5002452;28;20099;-50
2021/12/03 16:17:43;;;;;;;8.95;4.28;;;;;;;1.98;74.15;100669.75;5005469;28;20585;-53
2021/12/03 16:52:11;;;;;;;14.60;7.20;;;;;;;1.96;74.26;100644.50;5004970;28;20046;-50
2021/12/03 16:54:41;;;;;;;10.45;5.50;;;;;;;1.96;74.28;100640.03;5005346;28;20064;-52
2021/12/03 16:57:09;;;;;;;11.63;6.05;;;;;;;1.94;74.21;100631.50;5002553;28;20030;-51
2021/12/03 16:59:34;;;;;;;11.18;5.40;;;;;;;1.92;74.27;100635.34;5004165;28;20026;-52
2021/12/03 17:02:09;;;;;;;13.55;5.07;;;;;;;1.91;74.61;100633.72;5001104;28;20029;-52
2021/12/03 17:15:11;;;;;;;13.03;5.80;;;;;;;1.95;74.24;100630.47;5004602;28;20041;-52
2021/12/03 17:50:06;;;;;;;11.10;6.13;;;;;;;1.94;74.89;100617.47;5008590;28;20040;-52
2021/12/03 17:52:49;;;;;;;12.02;6.32;;;;;;;1.94;75.26;100607.72;5002960;28;20030;-54
2021/12/03 17:57:54;;;;;;;14.15;7.07;;;;;;;1.92;75.09;100591.25;5004625;28;20026;-51
2021/12/03 18:00:47;;;;;;;16.42;7.32;;;;;;;1.84;75.20;100595.88;5003080;28;20033;-51
2021/12/03 18:03:25;;;;;;;12.18;6.40;;;;;;;1.91;75.04;100592.25;5003140;28;20026;-52
2021/12/03 18:49:48;;;;;;;13.32;5.07;;;;;;;1.90;74.62;100542.25;5006210;28;20029;-52
2021/12/03 18:57:18;;;;;;;9.50;4.40;;;;;;;1.91;74.58;100530.69;4962625;28;20149;-53
2021/12/03 18:59:55;;;;;;;10.05;4.82;;;;;;;1.91;74.43;100526.22;5000798;28;20038;-53
2021/12/03 19:02:25;;;;;;;10.57;4.32;;;;;;;1.91;74.91;100523.56;5006115;28;20077;-51
2021/12/03 19:04:57;;;;;;;6.70;4.10;;;;;;;1.95;74.00;100510.78;5006119;28;20129;-53
2021/12/03 19:07:42;;;;;;;7.13;3.97;;;;;;;1.94;74.10;100504.66;5000727;28;20037;-52